Time;durP1;ratioP1;P1;durP2;ratioP2;P2;SDS_P1;SDS_P2;PMS_P1;PMS_P2;Temp;Humidity;BMP_temperature;BMP_pressure;BME280_temperature;BME280_humidity;BME280_pressure;Samples;Min_cycle;Max_cycle;Signal;HPM_P1;HPM_P2
2023/12/23 00:00:07;;;;;;;;;;;;;;;20.20;44.22;99000.69;2098842;28;6170;-70
2023/12/23 00:01:11;;;;;;;;;;;;;;;20.20;44.11;99006.44;2101817;28;1678;-70
2023/12/23 00:02:13;;;;;;;;;;;;;;;20.20;44.00;99017.91;2102708;28;1796;-71
2023/12/23 00:03:14;;;;;;;;;;;;;;;20.20;43.98;99009.31;2100618;28;1975;-70
2023/12/23 00:04:16;;;;;;;;;;;;;;;20.19;43.96;99022.22;2099642;28;1551;-70
2023/12/23 00:05:18;;;;;;;;;;;;;;;20.20;44.21;99029.41;2098355;28;1926;-71
2023/12/23 00:06:20;;;;;;;;;;;;;;;20.20;43.99;99020.78;2098442;28;1625;-70
2023/12/23 00:07:22;;;;;;;;;;;;;;;20.18;43.98;99027.25;2101889;28;1902;-70
2023/12/23 00:08:23;;;;;;;;;;;;;;;20.18;44.26;99032.25;2089754;28;1630;-69
2023/12/23 00:09:27;;;;;;;;;;;;;;;20.18;44.15;99033.00;2083977;28;2005;-70
2023/12/23 00:10:29;;;;;;;;;;;;;;;20.17;44.12;99036.56;2101488;28;2452;-70
2023/12/23 00:11:30;;;;;;;;;;;;;;;20.18;44.11;99032.25;2097503;28;1851;-70
2023/12/23 00:12:32;;;;;;;;;;;;;;;20.17;44.10;99037.28;2099590;28;1703;-70
2023/12/23 00:13:33;;;;;;;;;;;;;;;20.17;44.20;99027.94;2103061;28;1703;-70
2023/12/23 00:14:35;;;;;;;;;;;;;;;20.17;44.07;99019.31;2101011;28;1910;-70
2023/12/23 00:15:36;;;;;;;;;;;;;;;20.16;44.12;99032.97;2100226;28;1935;-70
2023/12/23 00:16:38;;;;;;;;;;;;;;;20.16;44.20;99043.69;2100118;28;1859;-70
2023/12/23 00:17:39;;;;;;;;;;;;;;;20.16;43.93;99032.22;2097092;28;1875;-69
2023/12/23 00:18:41;;;;;;;;;;;;;;;20.16;44.08;99046.56;2098348;28;1541;-70
2023/12/23 00:19:43;;;;;;;;;;;;;;;20.15;44.04;99045.84;2098047;28;1914;-70
2023/12/23 00:20:44;;;;;;;;;;;;;;;20.15;44.17;99060.22;2099962;28;2047;-69
2023/12/23 00:21:46;;;;;;;;;;;;;;;20.16;44.14;99052.31;2101403;28;2003;-69
2023/12/23 00:22:47;;;;;;;;;;;;;;;20.15;44.08;99057.34;2101293;28;1799;-70
2023/12/23 00:23:49;;;;;;;;;;;;;;;20.14;44.17;99061.66;2100070;28;1916;-70
2023/12/23 00:24:50;;;;;;;;;;;;;;;20.14;44.17;99049.44;2103026;28;1843;-70
2023/12/23 00:25:52;;;;;;;;;;;;;;;20.15;44.30;99059.50;2100211;28;1569;-70
2023/12/23 00:26:53;;;;;;;;;;;;;;;20.14;44.12;99064.53;2099547;28;2328;-70
2023/12/23 00:27:55;;;;;;;;;;;;;;;20.14;44.29;99058.78;2100114;28;1916;-70
2023/12/23 00:28:56;;;;;;;;;;;;;;;20.14;44.11;99055.19;2093658;28;2310;-70
2023/12/23 00:29:58;;;;;;;;;;;;;;;20.14;44.38;99058.06;2098293;28;1859;-70
2023/12/23 00:30:59;;;;;;;;;;;;;;;20.14;44.15;99078.16;2102287;28;6052;-70
2023/12/23 00:32:01;;;;;;;;;;;;;;;20.14;44.22;99069.56;2100061;28;1676;-70
2023/12/23 00:33:05;;;;;;;;;;;;;;;20.14;44.25;99067.41;2100402;28;1539;-70
2023/12/23 00:34:06;;;;;;;;;;;;;;;20.15;44.07;99068.13;2100024;28;1970;-69
2023/12/23 00:35:08;;;;;;;;;;;;;;;20.15;44.12;99062.38;2101557;28;1970;-70
2023/12/23 00:36:09;;;;;;;;;;;;;;;20.16;44.19;99069.56;2100248;28;1996;-70
2023/12/23 00:37:11;;;;;;;;;;;;;;;20.15;44.07;99077.47;2101182;28;1548;-70
2023/12/23 00:38:13;;;;;;;;;;;;;;;20.16;44.19;99076.06;2099106;28;1951;-70
2023/12/23 00:39:15;;;;;;;;;;;;;;;20.16;44.04;99069.56;2102204;28;1456;-69
2023/12/23 00:40:16;;;;;;;;;;;;;;;20.17;44.01;99074.63;2097825;28;1926;-70
2023/12/23 00:41:18;;;;;;;;;;;;;;;20.16;44.16;99055.94;2099859;28;1884;-70
2023/12/23 00:42:19;;;;;;;;;;;;;;;20.16;44.07;99075.31;2097293;28;2049;-69
2023/12/23 00:43:21;;;;;;;;;;;;;;;20.17;44.09;99071.03;2097888;28;2005;-69
2023/12/23 00:44:22;;;;;;;;;;;;;;;20.16;44.21;99081.81;2100180;28;1994;-69
2023/12/23 00:45:23;;;;;;;;;;;;;;;20.15;44.38;99085.38;2099442;28;1930;-69
2023/12/23 00:46:25;;;;;;;;;;;;;;;20.15;44.18;99088.25;2098820;28;1912;-68
2023/12/23 00:47:26;;;;;;;;;;;;;;;20.14;44.15;99101.16;2100032;28;2102;-69
2023/12/23 00:48:34;;;;;;;;;;;;;;;20.13;44.19;99074.56;2098434;28;2002;-68
2023/12/23 00:49:36;;;;;;;;;;;;;;;20.13;44.27;99094.66;2097393;28;1843;-71
2023/12/23 00:50:37;;;;;;;;;;;;;;;20.12;44.16;99098.25;2098389;28;1714;-70
2023/12/23 00:51:38;;;;;;;;;;;;;;;20.13;44.14;99099.69;2098152;28;1860;-70
2023/12/23 00:52:40;;;;;;;;;;;;;;;20.14;44.12;99106.91;2100213;28;2108;-69
2023/12/23 00:53:41;;;;;;;;;;;;;;;20.12;44.08;99106.88;2103432;28;2172;-70
2023/12/23 00:54:46;;;;;;;;;;;;;;;20.12;44.17;99109.75;2100797;28;1961;-70
2023/12/23 00:55:47;;;;;;;;;;;;;;;20.12;44.23;99118.34;2101609;28;1876;-70
2023/12/23 00:56:48;;;;;;;;;;;;;;;20.13;44.16;99131.28;2097806;28;1550;-70
2023/12/23 00:57:50;;;;;;;;;;;;;;;20.12;44.27;99126.97;2098241;28;1934;-70
2023/12/23 00:58:51;;;;;;;;;;;;;;;20.11;44.27;99134.13;2099745;28;2026;-70
2023/12/23 00:59:54;;;;;;;;;;;;;;;20.11;44.30;99154.22;2099855;28;1938;-70
2023/12/23 01:00:56;;;;;;;;;;;;;;;20.09;44.29;99141.31;2100273;28;6152;-70
2023/12/23 01:01:57;;;;;;;;;;;;;;;20.07;44.19;99152.75;2099536;28;1907;-70
2023/12/23 01:02:59;;;;;;;;;;;;;;;20.09;44.28;99147.03;2102429;28;1545;-69
2023/12/23 01:04:00;;;;;;;;;;;;;;;20.08;44.05;99151.31;2098296;28;1922;-70
2023/12/23 01:05:02;;;;;;;;;;;;;;;20.09;44.13;99152.78;2100492;28;1972;-70
2023/12/23 01:06:03;;;;;;;;;;;;;;;20.09;44.12;99163.56;2100001;28;2026;-70
2023/12/23 01:07:05;;;;;;;;;;;;;;;20.08;44.14;99159.94;2103129;28;1780;-70
2023/12/23 01:08:06;;;;;;;;;;;;;;;20.08;43.96;99168.56;2100939;28;1949;-70
2023/12/23 01:09:08;;;;;;;;;;;;;;;20.09;44.06;99178.66;2100833;28;1919;-70
2023/12/23 01:10:09;;;;;;;;;;;;;;;20.08;44.22;99180.06;2096549;28;1935;-69
2023/12/23 01:11:11;;;;;;;;;;;;;;;20.09;44.08;99181.53;2097352;28;1913;-70
2023/12/23 01:12:12;;;;;;;;;;;;;;;20.09;44.00;99172.91;2097938;28;2070;-70
2023/12/23 01:13:13;;;;;;;;;;;;;;;20.09;43.94;99187.28;2101042;28;2118;-69
2023/12/23 01:14:15;;;;;;;;;;;;;;;20.10;43.91;99196.63;2100944;28;2065;-70
2023/12/23 01:15:16;;;;;;;;;;;;;;;20.11;43.99;99177.94;2098712;28;1631;-70
2023/12/23 01:16:18;;;;;;;;;;;;;;;20.12;43.93;99193.06;2100393;28;1943;-70
2023/12/23 01:17:19;;;;;;;;;;;;;;;20.12;43.93;99184.44;2098133;28;1919;-70
2023/12/23 01:18:21;;;;;;;;;;;;;;;20.13;43.88;99200.25;2097957;28;1879;-69
2023/12/23 01:19:22;;;;;;;;;;;;;;;20.13;43.98;99203.13;2101741;28;1977;-70
2023/12/23 01:20:24;;;;;;;;;;;;;;;20.13;43.87;99197.38;2097240;28;1790;-70
2023/12/23 01:21:25;;;;;;;;;;;;;;;20.13;43.95;99214.63;2098779;28;2002;-70
2023/12/23 01:22:27;;;;;;;;;;;;;;;20.13;44.09;99221.09;2101992;28;1953;-70
2023/12/23 01:23:28;;;;;;;;;;;;;;;20.13;43.97;99221.09;2100752;28;1914;-70
2023/12/23 01:24:30;;;;;;;;;;;;;;;20.13;43.96;99232.59;2099065;28;1658;-69
2023/12/23 01:25:31;;;;;;;;;;;;;;;20.13;43.97;99209.59;2101135;28;1581;-70
2023/12/23 01:26:33;;;;;;;;;;;;;;;20.12;44.02;99213.91;2100607;28;1546;-69
2023/12/23 01:27:34;;;;;;;;;;;;;;;20.13;43.98;99220.38;2102449;28;1973;-70
2023/12/23 01:28:36;;;;;;;;;;;;;;;20.12;43.96;99221.81;2100960;28;1846;-70
2023/12/23 01:29:37;;;;;;;;;;;;;;;20.11;43.98;99226.06;2098563;28;1955;-69
2023/12/23 01:30:39;;;;;;;;;;;;;;;20.12;43.87;99224.69;2099485;28;6160;-69
2023/12/23 01:31:41;;;;;;;;;;;;;;;20.10;43.98;99228.22;2098896;28;1887;-70
2023/12/23 01:32:42;;;;;;;;;;;;;;;20.11;43.93;99235.41;2099566;28;2063;-70
2023/12/23 01:33:43;;;;;;;;;;;;;;;20.10;43.95;99233.97;2097745;28;2018;-70
2023/12/23 01:34:45;;;;;;;;;;;;;;;20.11;43.94;99241.16;2100924;28;2085;-70
2023/12/23 01:35:46;;;;;;;;;;;;;;;20.09;44.06;99233.25;2103372;28;1781;-70
2023/12/23 01:36:48;;;;;;;;;;;;;;;20.09;43.97;99244.75;2098627;28;1978;-70
2023/12/23 01:37:49;;;;;;;;;;;;;;;20.09;44.00;99250.50;2102549;28;1661;-70
2023/12/23 01:38:51;;;;;;;;;;;;;;;20.09;44.10;99255.50;2099545;28;1895;-69
2023/12/23 01:39:53;;;;;;;;;;;;;;;20.09;44.09;99249.75;2099145;28;2019;-69
2023/12/23 01:40:55;;;;;;;;;;;;;;;20.08;44.07;99249.00;2100159;28;1977;-70
2023/12/23 01:41:56;;;;;;;;;;;;;;;20.08;43.95;99254.03;2099583;28;2041;-69
2023/12/23 01:42:58;;;;;;;;;;;;;;;20.07;44.09;99253.31;2100914;28;2144;-69
2023/12/23 01:43:59;;;;;;;;;;;;;;;20.06;44.06;99254.72;2103551;28;2006;-69
2023/12/23 01:45:00;;;;;;;;;;;;;;;20.07;44.09;99258.34;2100392;28;1615;-70
2023/12/23 01:46:02;;;;;;;;;;;;;;;20.07;44.05;99264.81;2101066;28;1504;-69
2023/12/23 01:47:03;;;;;;;;;;;;;;;20.07;43.88;99249.72;2099353;28;1946;-69
2023/12/23 01:48:05;;;;;;;;;;;;;;;20.07;44.09;99264.81;2101166;28;1872;-69
2023/12/23 01:49:07;;;;;;;;;;;;;;;20.07;44.03;99261.94;2100935;28;1999;-70
2023/12/23 01:50:09;;;;;;;;;;;;;;;20.08;43.95;99271.28;2100486;28;1995;-69
2023/12/23 01:51:10;;;;;;;;;;;;;;;20.07;44.08;99278.44;2102667;28;2099;-69
2023/12/23 01:52:12;;;;;;;;;;;;;;;20.08;44.11;99277.03;2102566;28;1731;-70
2023/12/23 01:53:13;;;;;;;;;;;;;;;20.06;43.92;99277.69;2100185;28;1828;-70
2023/12/23 01:54:15;;;;;;;;;;;;;;;20.08;43.97;99283.50;2100130;28;1714;-70
2023/12/23 01:55:16;;;;;;;;;;;;;;;20.08;43.88;99274.88;2101771;28;2327;-69
2023/12/23 01:56:17;;;;;;;;;;;;;;;20.07;43.83;99282.03;2102042;28;1915;-69
2023/12/23 01:57:19;;;;;;;;;;;;;;;20.09;44.03;99290.00;2102757;28;1966;-70
2023/12/23 01:58:21;;;;;;;;;;;;;;;20.09;43.83;99293.59;2103686;28;1780;-69
2023/12/23 01:59:22;;;;;;;;;;;;;;;20.11;43.87;99295.03;2099730;28;1993;-69
2023/12/23 02:00:24;;;;;;;;;;;;;;;20.11;43.96;99292.88;2101295;28;5969;-70
2023/12/23 02:01:26;;;;;;;;;;;;;;;20.12;43.75;99302.25;2101826;28;1951;-62
2023/12/23 02:02:27;;;;;;;;;;;;;;;20.10;43.76;99291.44;2101416;28;1929;-61
2023/12/23 02:03:29;;;;;;;;;;;;;;;20.11;43.99;99292.16;2101443;28;1954;-62
2023/12/23 02:04:31;;;;;;;;;;;;;;;20.11;43.76;99274.91;2097745;28;2034;-60
2023/12/23 02:05:32;;;;;;;;;;;;;;;20.12;43.82;99287.88;2098052;28;1995;-63
2023/12/23 02:06:33;;;;;;;;;;;;;;;20.11;43.91;99297.91;2099384;28;1967;-62
2023/12/23 02:07:35;;;;;;;;;;;;;;;20.09;43.85;99305.09;2099288;28;1903;-62
2023/12/23 02:08:36;;;;;;;;;;;;;;;20.10;43.88;99308.69;2100491;28;1709;-62
2023/12/23 02:09:38;;;;;;;;;;;;;;;20.08;43.90;99311.50;2099566;28;1939;-62
2023/12/23 02:10:40;;;;;;;;;;;;;;;20.08;43.97;99311.50;2102696;28;1884;-62
2023/12/23 02:12:00;;;;;;;;;;;;;;;20.07;43.85;99310.78;2101123;28;1674;-62
2023/12/23 02:13:04;;;;;;;;;;;;;;;20.08;43.94;99305.75;2102221;28;1945;-62
2023/12/23 02:14:22;;;;;;;;;;;;;;;20.06;43.85;99306.44;2100715;28;2060;-62
2023/12/23 02:15:23;;;;;;;;;;;;;;;20.07;43.92;99316.53;2102010;28;1941;-61
2023/12/23 02:16:25;;;;;;;;;;;;;;;20.07;44.12;99328.00;2094498;28;2046;-62
2023/12/23 02:17:26;;;;;;;;;;;;;;;20.05;43.96;99333.72;2095325;28;1541;-62
2023/12/23 02:18:28;;;;;;;;;;;;;;;20.06;44.00;99325.81;2103642;28;2077;-62
2023/12/23 02:19:29;;;;;;;;;;;;;;;20.06;43.84;99331.56;2098837;28;1633;-62
2023/12/23 02:20:31;;;;;;;;;;;;;;;20.06;43.81;99325.81;2100689;28;1887;-62
2023/12/23 02:21:32;;;;;;;;;;;;;;;20.06;43.81;99335.16;2101976;28;1775;-62
2023/12/23 02:22:33;;;;;;;;;;;;;;;20.04;43.98;99323.66;2101026;28;2056;-62
2023/12/23 02:23:35;;;;;;;;;;;;;;;20.04;43.88;99317.91;2100116;28;1549;-62
2023/12/23 02:24:36;;;;;;;;;;;;;;;20.04;43.86;99320.78;2099664;28;1910;-62
2023/12/23 02:25:38;;;;;;;;;;;;;;;20.03;43.79;99322.16;2100394;28;1941;-62
2023/12/23 02:26:39;;;;;;;;;;;;;;;20.04;43.96;99329.41;2096837;28;1943;-62
2023/12/23 02:27:43;;;;;;;;;;;;;;;20.04;43.80;99338.00;2095962;28;1930;-62
2023/12/23 02:28:48;;;;;;;;;;;;;;;20.04;43.82;99317.91;2096586;28;1945;-62
2023/12/23 02:29:50;;;;;;;;;;;;;;;20.03;43.84;99321.44;2098500;28;1754;-62
2023/12/23 02:30:51;;;;;;;;;;;;;;;20.04;43.83;99329.41;2091702;28;6008;-62
2023/12/23 02:31:53;;;;;;;;;;;;;;;20.05;43.92;99330.84;2090992;28;1909;-62
2023/12/23 02:32:54;;;;;;;;;;;;;;;20.04;43.92;99346.63;2095428;28;1803;-62
2023/12/23 02:33:56;;;;;;;;;;;;;;;20.05;43.87;99330.84;2091771;28;1967;-62
2023/12/23 02:34:57;;;;;;;;;;;;;;;20.04;43.87;99338.00;2100422;28;1659;-62
2023/12/23 02:35:59;;;;;;;;;;;;;;;20.06;43.71;99337.31;2099801;28;1942;-62
2023/12/23 02:37:00;;;;;;;;;;;;;;;20.05;43.68;99336.59;2101681;28;1786;-62
2023/12/23 02:38:02;;;;;;;;;;;;;;;20.06;43.93;99338.03;2100061;28;1573;-62
2023/12/23 02:39:03;;;;;;;;;;;;;;;20.07;43.53;99344.53;2098572;28;1603;-62
2023/12/23 02:40:05;;;;;;;;;;;;;;;20.06;43.91;99331.56;2098429;28;1922;-62
2023/12/23 02:41:06;;;;;;;;;;;;;;;20.06;43.83;99343.78;2099400;28;1707;-62
2023/12/23 02:42:08;;;;;;;;;;;;;;;20.06;43.78;99338.03;2099644;28;1704;-62
2023/12/23 02:43:09;;;;;;;;;;;;;;;20.06;43.70;99334.44;2099608;28;1661;-62
2023/12/23 02:44:10;;;;;;;;;;;;;;;20.07;43.87;99356.75;2099513;28;1918;-62
2023/12/23 02:45:12;;;;;;;;;;;;;;;20.07;43.80;99333.03;2101377;28;1918;-62
2023/12/23 02:46:13;;;;;;;;;;;;;;;20.07;43.85;99356.03;2097211;28;1938;-62
2023/12/23 02:47:16;;;;;;;;;;;;;;;20.06;43.85;99361.03;2100292;28;2010;-62
2023/12/23 02:48:17;;;;;;;;;;;;;;;20.06;43.85;99357.44;2101650;28;1919;-62
2023/12/23 02:49:19;;;;;;;;;;;;;;;20.06;43.83;99366.03;2100582;28;1790;-62
2023/12/23 02:50:20;;;;;;;;;;;;;;;20.05;43.77;99371.06;2101528;28;1987;-62
2023/12/23 02:51:22;;;;;;;;;;;;;;;20.04;43.90;99369.63;2101723;28;1598;-62
2023/12/23 02:52:23;;;;;;;;;;;;;;;20.04;43.76;99369.63;2098617;28;1762;-62
2023/12/23 02:53:24;;;;;;;;;;;;;;;20.04;43.90;99375.38;2102756;28;1857;-62
2023/12/23 02:54:26;;;;;;;;;;;;;;;20.04;43.72;99368.88;2100877;28;2664;-62
2023/12/23 02:55:27;;;;;;;;;;;;;;;20.02;43.69;99386.81;2100515;28;1796;-62
2023/12/23 02:56:29;;;;;;;;;;;;;;;20.03;43.89;99373.16;2097953;28;2129;-62
2023/12/23 02:57:30;;;;;;;;;;;;;;;20.01;43.76;99373.84;2099381;28;1951;-62
2023/12/23 02:58:32;;;;;;;;;;;;;;;20.01;43.90;99376.72;2100077;28;2208;-62
2023/12/23 02:59:33;;;;;;;;;;;;;;;20.01;43.75;99399.69;2102688;28;1618;-62
2023/12/23 03:00:35;;;;;;;;;;;;;;;20.01;43.95;99390.34;2102419;28;6446;-62
2023/12/23 03:01:36;;;;;;;;;;;;;;;20.01;43.83;99387.47;2097248;28;1927;-62
2023/12/23 03:02:38;;;;;;;;;;;;;;;19.99;43.81;99396.78;2099300;28;1855;-62
2023/12/23 03:03:39;;;;;;;;;;;;;;;20.00;43.88;99389.63;2102004;28;1654;-62
2023/12/23 03:04:40;;;;;;;;;;;;;;;20.00;43.73;99388.91;2103177;28;1993;-62
2023/12/23 03:05:42;;;;;;;;;;;;;;;19.99;43.73;99388.16;2097995;28;1924;-62
2023/12/23 03:06:43;;;;;;;;;;;;;;;20.00;43.67;99386.03;2100135;28;2017;-62
2023/12/23 03:07:47;;;;;;;;;;;;;;;19.99;43.68;99399.66;2095743;28;2032;-62
2023/12/23 03:08:49;;;;;;;;;;;;;;;20.00;43.69;99394.66;2097749;28;1871;-62
2023/12/23 03:09:50;;;;;;;;;;;;;;;20.01;43.67;99398.97;2099568;28;1918;-62
2023/12/23 03:10:52;;;;;;;;;;;;;;;20.00;43.78;99398.25;2097970;28;1982;-62
2023/12/23 03:11:54;;;;;;;;;;;;;;;20.01;43.61;99393.22;2100707;28;1938;-62
2023/12/23 03:12:55;;;;;;;;;;;;;;;20.00;43.74;99392.50;2100631;28;1882;-62
2023/12/23 03:13:56;;;;;;;;;;;;;;;20.00;43.78;99386.03;2103287;28;1934;-62
2023/12/23 03:14:58;;;;;;;;;;;;;;;20.02;43.58;99383.19;2098900;28;1988;-62
2023/12/23 03:16:00;;;;;;;;;;;;;;;20.01;43.58;99388.19;2098174;28;2048;-62
2023/12/23 03:17:01;;;;;;;;;;;;;;;20.01;43.73;99391.06;2097627;28;1986;-62
2023/12/23 03:18:03;;;;;;;;;;;;;;;20.01;43.63;99396.81;2098957;28;2338;-62
2023/12/23 03:19:05;;;;;;;;;;;;;;;20.03;43.69;99396.16;2098154;28;2017;-62
2023/12/23 03:20:07;;;;;;;;;;;;;;;20.02;43.71;99392.56;2098472;28;1789;-63
2023/12/23 03:21:08;;;;;;;;;;;;;;;20.02;43.75;99389.69;2099477;28;2080;-62
2023/12/23 03:22:10;;;;;;;;;;;;;;;20.03;43.80;99401.91;2095814;28;2042;-62
2023/12/23 03:23:12;;;;;;;;;;;;;;;20.02;43.71;99389.69;2097960;28;1992;-62
2023/12/23 03:24:13;;;;;;;;;;;;;;;20.03;43.82;99401.91;2101504;28;2029;-62
2023/12/23 03:25:14;;;;;;;;;;;;;;;20.01;43.72;99411.19;2099601;28;1980;-62
2023/12/23 03:26:16;;;;;;;;;;;;;;;20.03;43.74;99407.66;2102264;28;1951;-62
2023/12/23 03:27:20;;;;;;;;;;;;;;;20.02;43.63;99411.91;2099756;28;2025;-62
2023/12/23 03:28:21;;;;;;;;;;;;;;;20.02;43.63;99415.53;2098634;28;1982;-62
2023/12/23 03:29:23;;;;;;;;;;;;;;;20.03;43.79;99419.13;2100814;28;2020;-62
2023/12/23 03:30:24;;;;;;;;;;;;;;;20.01;43.74;99419.81;2102118;28;6019;-62
2023/12/23 03:31:26;;;;;;;;;;;;;;;20.00;43.72;99415.47;2102001;28;1853;-62
2023/12/23 03:32:27;;;;;;;;;;;;;;;19.99;43.77;99419.75;2100164;28;2157;-62
2023/12/23 03:33:29;;;;;;;;;;;;;;;20.00;43.78;99421.22;2100578;28;1906;-62
2023/12/23 03:34:30;;;;;;;;;;;;;;;20.00;43.66;99426.25;2099912;28;2153;-62
2023/12/23 03:35:32;;;;;;;;;;;;;;;19.99;43.72;99422.63;2101456;28;1609;-62
2023/12/23 03:36:33;;;;;;;;;;;;;;;19.99;43.68;99431.25;2099807;28;1717;-62
2023/12/23 03:37:34;;;;;;;;;;;;;;;19.99;43.81;99431.25;2097384;28;1923;-62
2023/12/23 03:38:36;;;;;;;;;;;;;;;19.99;43.88;99422.63;2099618;28;2225;-62
2023/12/23 03:39:37;;;;;;;;;;;;;;;20.00;43.62;99426.25;2101389;28;1731;-62
2023/12/23 03:40:39;;;;;;;;;;;;;;;19.99;43.65;99431.25;2103989;28;1822;-62
2023/12/23 03:41:40;;;;;;;;;;;;;;;20.01;43.69;99428.44;2099230;28;1811;-62
2023/12/23 03:42:41;;;;;;;;;;;;;;;20.01;43.63;99433.44;2098388;28;1891;-62
2023/12/23 03:43:43;;;;;;;;;;;;;;;20.01;43.62;99439.19;2103284;28;2041;-62
2023/12/23 03:44:44;;;;;;;;;;;;;;;20.01;43.54;99434.16;2100259;28;1613;-62
2023/12/23 03:45:46;;;;;;;;;;;;;;;20.02;43.62;99440.66;2103425;28;1997;-62
2023/12/23 03:46:47;;;;;;;;;;;;;;;20.01;43.66;99428.44;2096431;28;1946;-62
2023/12/23 03:47:50;;;;;;;;;;;;;;;20.02;43.58;99444.28;2097937;28;1898;-62
2023/12/23 03:48:51;;;;;;;;;;;;;;;20.01;43.70;99439.91;2101038;28;1961;-62
2023/12/23 03:49:53;;;;;;;;;;;;;;;20.04;43.70;99438.56;2099350;28;2071;-62
2023/12/23 03:50:54;;;;;;;;;;;;;;;20.02;43.76;99435.66;2098432;28;1937;-62
2023/12/23 03:51:56;;;;;;;;;;;;;;;20.04;43.78;99443.56;2102057;28;1986;-62
2023/12/23 03:52:57;;;;;;;;;;;;;;;20.03;43.69;99442.84;2099408;28;1701;-62
2023/12/23 03:53:59;;;;;;;;;;;;;;;20.05;43.82;99442.19;2098156;28;1887;-62
2023/12/23 03:55:01;;;;;;;;;;;;;;;20.05;43.77;99445.78;2100137;28;1883;-62
2023/12/23 03:56:02;;;;;;;;;;;;;;;20.04;43.81;99438.56;2098785;28;1950;-62
2023/12/23 03:57:04;;;;;;;;;;;;;;;20.05;43.70;99440.03;2097537;28;2049;-62
2023/12/23 03:58:05;;;;;;;;;;;;;;;20.06;43.62;99435.00;2099985;28;1831;-61
2023/12/23 03:59:07;;;;;;;;;;;;;;;20.07;43.66;99454.44;2098749;28;1928;-62
2023/12/23 04:00:08;;;;;;;;;;;;;;;20.06;43.65;99450.09;2102267;28;6005;-61
2023/12/23 04:01:10;;;;;;;;;;;;;;;20.08;43.73;99447.28;2100069;28;1946;-62
2023/12/23 04:02:12;;;;;;;;;;;;;;;20.07;43.67;99445.81;2098282;28;1784;-62
2023/12/23 04:03:13;;;;;;;;;;;;;;;20.08;43.61;99446.56;2097402;28;1958;-62
2023/12/23 04:04:15;;;;;;;;;;;;;;;20.08;43.68;99444.41;2099695;28;2064;-62
2023/12/23 04:05:16;;;;;;;;;;;;;;;20.08;43.62;99444.41;2100442;28;2003;-62
2023/12/23 04:06:18;;;;;;;;;;;;;;;20.09;43.68;99445.88;2101568;28;1562;-62
2023/12/23 04:07:19;;;;;;;;;;;;;;;20.09;43.83;99437.25;2099051;28;2063;-62
2023/12/23 04:08:20;;;;;;;;;;;;;;;20.11;43.67;99444.47;2097383;28;1985;-62
2023/12/23 04:09:22;;;;;;;;;;;;;;;20.09;43.78;99451.63;2096937;28;1961;-62
2023/12/23 04:10:23;;;;;;;;;;;;;;;20.09;43.68;99445.16;2098356;28;1922;-62
2023/12/23 04:11:25;;;;;;;;;;;;;;;20.11;43.71;99458.81;2102394;28;1947;-62
2023/12/23 04:12:26;;;;;;;;;;;;;;;20.11;43.76;99444.47;2101847;28;1903;-62
2023/12/23 04:13:29;;;;;;;;;;;;;;;20.11;43.79;99450.19;2099117;28;1928;-62
2023/12/23 04:14:31;;;;;;;;;;;;;;;20.12;43.66;99461.03;2101633;28;2045;-62
2023/12/23 04:15:32;;;;;;;;;;;;;;;20.12;43.65;99466.78;2099782;28;1883;-62
2023/12/23 04:16:37;;;;;;;;;;;;;;;20.13;43.67;99464.63;2099868;28;1577;-62
2023/12/23 04:17:39;;;;;;;;;;;;;;;20.13;43.78;99468.22;2100938;28;1983;-62
2023/12/23 04:18:40;;;;;;;;;;;;;;;20.12;43.72;99463.91;2098172;28;1998;-62
2023/12/23 04:19:42;;;;;;;;;;;;;;;20.13;43.83;99462.47;2100004;28;1867;-62
2023/12/23 04:20:43;;;;;;;;;;;;;;;20.12;43.64;99460.31;2102073;28;1919;-62
2023/12/23 04:21:45;;;;;;;;;;;;;;;20.13;43.80;99456.00;2101531;28;1849;-62
2023/12/23 04:22:48;;;;;;;;;;;;;;;20.13;43.59;99458.88;2100901;28;1985;-63
2023/12/23 04:23:50;;;;;;;;;;;;;;;20.12;43.79;99454.56;2097972;28;1713;-62
2023/12/23 04:24:51;;;;;;;;;;;;;;;20.12;43.72;99460.31;2099821;28;2029;-62
2023/12/23 04:25:53;;;;;;;;;;;;;;;20.12;43.81;99460.31;2101854;28;1914;-62
2023/12/23 04:26:54;;;;;;;;;;;;;;;20.12;43.85;99457.44;2101277;28;1633;-62
2023/12/23 04:27:56;;;;;;;;;;;;;;;20.12;43.86;99463.19;2099527;28;1869;-62
2023/12/23 04:28:58;;;;;;;;;;;;;;;20.11;43.94;99465.28;2099577;28;1921;-62
2023/12/23 04:29:59;;;;;;;;;;;;;;;20.11;43.87;99462.41;2100087;28;1597;-62
2023/12/23 04:31:01;;;;;;;;;;;;;;;20.11;43.88;99450.19;2101264;28;5970;-62
2023/12/23 04:32:04;;;;;;;;;;;;;;;20.09;43.84;99460.25;2108484;28;1898;-62
2023/12/23 04:33:05;;;;;;;;;;;;;;;20.08;43.83;99453.03;2105649;28;1797;-62
2023/12/23 04:34:07;;;;;;;;;;;;;;;20.10;43.66;99452.34;2102731;28;1666;-62
2023/12/23 04:35:09;;;;;;;;;;;;;;;20.11;43.72;99453.06;2098419;28;1934;-62
2023/12/23 04:36:11;;;;;;;;;;;;;;;20.11;43.72;99462.41;2100119;28;2015;-62
2023/12/23 04:37:12;;;;;;;;;;;;;;;20.11;43.84;99458.81;2097530;28;1961;-62
2023/12/23 04:38:14;;;;;;;;;;;;;;;20.12;43.68;99466.06;2098851;28;2180;-62
2023/12/23 04:39:15;;;;;;;;;;;;;;;20.12;43.69;99460.31;2102205;28;1561;-62
2023/12/23 04:40:17;;;;;;;;;;;;;;;20.11;43.80;99447.34;2101274;28;1812;-62
2023/12/23 04:41:18;;;;;;;;;;;;;;;20.12;43.73;99460.31;2098846;28;1523;-62
2023/12/23 04:42:19;;;;;;;;;;;;;;;20.13;43.77;99464.63;2100586;28;1930;-62
2023/12/23 04:43:21;;;;;;;;;;;;;;;20.12;43.88;99466.06;2096976;28;1903;-62
2023/12/23 04:44:22;;;;;;;;;;;;;;;20.13;43.85;99461.75;2098626;28;1898;-62
2023/12/23 04:45:24;;;;;;;;;;;;;;;20.13;43.67;99461.75;2099891;28;1922;-62
2023/12/23 04:46:26;;;;;;;;;;;;;;;20.13;43.72;99462.47;2098525;28;2083;-62
2023/12/23 04:47:27;;;;;;;;;;;;;;;20.14;43.75;99463.22;2100876;28;1949;-61
2023/12/23 04:48:29;;;;;;;;;;;;;;;20.13;43.70;99461.75;2096903;28;2022;-62
2023/12/23 04:49:30;;;;;;;;;;;;;;;20.14;43.80;99460.34;2101843;28;1627;-62
2023/12/23 04:50:31;;;;;;;;;;;;;;;20.13;43.71;99453.13;2098116;28;1794;-62
2023/12/23 04:51:33;;;;;;;;;;;;;;;20.14;43.67;99463.22;2098634;28;2025;-62
2023/12/23 04:52:34;;;;;;;;;;;;;;;20.14;43.74;99458.22;2100728;28;1886;-62
2023/12/23 04:53:36;;;;;;;;;;;;;;;20.15;43.68;99459.66;2103117;28;1708;-62
2023/12/23 04:54:37;;;;;;;;;;;;;;;20.16;43.74;99463.25;2102710;28;1895;-62
2023/12/23 04:55:38;;;;;;;;;;;;;;;20.16;43.71;99454.63;2102472;28;1625;-62
2023/12/23 04:56:40;;;;;;;;;;;;;;;20.16;43.69;99466.13;2100571;28;1648;-63
2023/12/23 04:57:41;;;;;;;;;;;;;;;20.16;43.75;99454.63;2100524;28;1997;-63
2023/12/23 04:58:43;;;;;;;;;;;;;;;20.16;43.67;99448.88;2097677;28;2041;-63
2023/12/23 04:59:44;;;;;;;;;;;;;;;20.16;43.79;99446.75;2099619;28;1902;-63
2023/12/23 05:00:47;;;;;;;;;;;;;;;20.17;43.77;99448.22;2096074;28;6004;-63
2023/12/23 05:01:49;;;;;;;;;;;;;;;20.17;43.66;99444.63;2099016;28;1606;-63
2023/12/23 05:02:50;;;;;;;;;;;;;;;20.18;43.76;99440.31;2097189;28;1712;-63
2023/12/23 05:03:52;;;;;;;;;;;;;;;20.18;43.68;99446.06;2100755;28;1555;-63
2023/12/23 05:04:54;;;;;;;;;;;;;;;20.17;43.70;99447.50;2100062;28;1953;-63
2023/12/23 05:05:55;;;;;;;;;;;;;;;20.17;43.69;99445.34;2100377;28;1930;-62
2023/12/23 05:06:57;;;;;;;;;;;;;;;20.17;43.79;99450.38;2099914;28;2025;-62
2023/12/23 05:07:58;;;;;;;;;;;;;;;20.17;43.79;99456.13;2099730;28;2060;-62
2023/12/23 05:09:00;;;;;;;;;;;;;;;20.16;43.88;99460.38;2099336;28;1557;-63
2023/12/23 05:10:01;;;;;;;;;;;;;;;20.16;43.66;99454.63;2099179;28;1934;-63
2023/12/23 05:11:03;;;;;;;;;;;;;;;20.16;43.78;99461.13;2102409;28;1628;-62
2023/12/23 05:12:04;;;;;;;;;;;;;;;20.15;43.92;99465.41;2101584;28;1490;-62
2023/12/23 05:13:05;;;;;;;;;;;;;;;20.15;43.74;99461.81;2099214;28;2084;-62
2023/12/23 05:14:07;;;;;;;;;;;;;;;20.15;43.74;99456.06;2099248;28;2156;-62
2023/12/23 05:15:08;;;;;;;;;;;;;;;20.13;43.79;99453.13;2100783;28;2047;-62
2023/12/23 05:16:10;;;;;;;;;;;;;;;20.16;43.71;99454.63;2098586;28;2057;-62
2023/12/23 05:17:11;;;;;;;;;;;;;;;20.14;43.79;99457.47;2099828;28;2163;-62
2023/12/23 05:18:13;;;;;;;;;;;;;;;20.14;43.64;99457.47;2097605;28;2014;-62
2023/12/23 05:19:14;;;;;;;;;;;;;;;20.14;43.75;99457.47;2101414;28;1463;-63
2023/12/23 05:20:16;;;;;;;;;;;;;;;20.14;43.95;99458.22;2101189;28;1702;-63
2023/12/23 05:21:18;;;;;;;;;;;;;;;20.14;43.76;99452.47;2098135;28;1944;-63
2023/12/23 05:22:19;;;;;;;;;;;;;;;20.13;43.94;99439.50;2101797;28;1958;-63
2023/12/23 05:23:20;;;;;;;;;;;;;;;20.15;43.77;99453.19;2101031;28;2131;-62
2023/12/23 05:24:22;;;;;;;;;;;;;;;20.15;43.76;99447.44;2101138;28;1911;-61
2023/12/23 05:25:23;;;;;;;;;;;;;;;20.14;43.70;99440.25;2101062;28;1942;-61